createdAt,value
2023-11-22T00:00:24.800Z,0.32
2023-11-22T00:02:52.071Z,0.52
2023-11-22T00:05:19.477Z,0.43
2023-11-22T00:07:46.673Z,0.55
2023-11-22T00:10:14.370Z,0.50
2023-11-22T00:12:41.605Z,0.45
2023-11-22T00:15:11.612Z,0.60
2023-11-22T00:17:39.123Z,0.30
2023-11-22T00:20:07.386Z,0.30
2023-11-22T00:22:34.812Z,0.70
2023-11-22T00:25:03.123Z,0.43
2023-11-22T00:27:32.713Z,0.30
2023-11-22T00:30:00.600Z,0.40
2023-11-22T00:32:28.297Z,0.47
2023-11-22T00:34:55.737Z,0.38
2023-11-22T00:37:23.133Z,1.10
2023-11-22T00:39:50.323Z,0.98
2023-11-22T00:42:21.285Z,0.95
2023-11-22T00:44:49.274Z,0.80
2023-11-22T00:47:18.152Z,0.45
2023-11-22T00:49:45.636Z,0.80
2023-11-22T00:52:14.466Z,0.75
2023-11-22T00:54:41.966Z,0.50
2023-11-22T00:57:09.239Z,0.50
2023-11-22T00:59:36.551Z,0.63
2023-11-22T01:02:04.145Z,1.25
2023-11-22T01:04:35.341Z,1.15
2023-11-22T01:07:03.174Z,1.10
2023-11-22T01:09:30.454Z,0.80
2023-11-22T01:11:57.770Z,0.93
2023-11-22T01:14:25.369Z,0.43
2023-11-22T01:16:52.897Z,0.40
2023-11-22T01:19:20.195Z,0.50
2023-11-22T01:21:47.545Z,0.80
2023-11-22T01:24:14.796Z,0.52
2023-11-22T01:26:42.284Z,0.45
2023-11-22T01:29:09.675Z,0.30
2023-11-22T01:31:36.993Z,0.40
2023-11-22T01:34:08.140Z,0.30
2023-11-22T01:36:35.608Z,0.40
2023-11-22T01:39:03.521Z,0.40
2023-11-22T01:41:31.524Z,0.30
2023-11-22T01:43:59.364Z,0.30
2023-11-22T01:46:27.461Z,0.40
2023-11-22T01:48:55.953Z,0.35
2023-11-22T01:51:25.273Z,0.50
2023-11-22T01:53:55.892Z,0.85
2023-11-22T01:56:25.584Z,0.30
2023-11-22T01:58:55.084Z,0.30
2023-11-22T02:01:22.615Z,0.25
2023-11-22T02:03:50.454Z,0.47
2023-11-22T02:06:18.112Z,0.70
2023-11-22T02:08:45.413Z,0.30
2023-11-22T02:11:12.767Z,0.30
2023-11-22T02:13:40.050Z,0.30
2023-11-22T02:16:07.492Z,0.40
2023-11-22T02:18:35.309Z,0.20
2023-11-22T02:21:03.055Z,0.43
2023-11-22T02:23:30.380Z,0.38
2023-11-22T02:25:57.721Z,0.50
2023-11-22T02:28:24.967Z,0.50
2023-11-22T02:30:52.948Z,0.40
2023-11-22T02:33:20.401Z,0.50
2023-11-22T02:35:47.665Z,0.40
2023-11-22T02:38:15.253Z,0.40
2023-11-22T02:40:42.610Z,0.52
2023-11-22T02:43:10.427Z,0.45
2023-11-22T02:45:38.493Z,0.50
2023-11-22T02:48:10.710Z,0.45
2023-11-22T02:50:45.070Z,0.32
2023-11-22T02:53:12.570Z,0.30
2023-11-22T02:55:39.851Z,0.35
2023-11-22T02:58:07.636Z,1.00
2023-11-22T03:00:36.222Z,0.47
2023-11-22T03:05:34.063Z,0.45
2023-11-22T03:08:02.146Z,0.52
2023-11-22T03:10:29.425Z,0.70
2023-11-22T03:12:56.777Z,0.60
2023-11-22T03:15:24.034Z,0.40
2023-11-22T03:17:51.408Z,0.50
2023-11-22T03:20:18.863Z,0.80
2023-11-22T03:22:46.308Z,0.52
2023-11-22T03:25:13.591Z,0.38
2023-11-22T03:27:40.927Z,0.50
2023-11-22T03:30:13.304Z,0.68
2023-11-22T03:32:41.976Z,0.47
2023-11-22T03:35:09.998Z,0.30
2023-11-22T03:37:38.941Z,0.50
2023-11-22T03:40:06.898Z,0.60
2023-11-22T03:42:34.203Z,0.95
2023-11-22T03:45:01.469Z,1.10
2023-11-22T03:47:29.705Z,1.42
2023-11-22T03:49:57.476Z,1.00
2023-11-22T03:52:30.442Z,1.08
2023-11-22T03:54:59.924Z,1.30
2023-11-22T03:57:27.167Z,1.30
2023-11-22T03:59:54.599Z,1.48
2023-11-22T04:02:22.125Z,1.08
2023-11-22T04:04:49.605Z,1.13
2023-11-22T04:07:17.040Z,1.33
2023-11-22T04:09:44.395Z,0.80
2023-11-22T04:12:11.798Z,0.77
2023-11-22T04:14:39.322Z,0.68
2023-11-22T04:17:07.562Z,0.70
2023-11-22T04:19:35.363Z,0.50
2023-11-22T04:22:03.079Z,0.80
2023-11-22T04:24:31.091Z,0.80
2023-11-22T04:26:58.477Z,0.90
2023-11-22T04:29:26.628Z,0.70
2023-11-22T04:31:53.956Z,1.20
2023-11-22T04:34:21.702Z,0.52
2023-11-22T04:36:48.983Z,0.80
2023-11-22T04:39:16.742Z,0.73
2023-11-22T04:41:44.317Z,0.80
2023-11-22T04:44:12.369Z,0.82
2023-11-22T04:46:39.914Z,0.90
2023-11-22T04:49:08.904Z,1.00
2023-11-22T04:51:36.190Z,0.60
2023-11-22T04:54:04.121Z,0.75
2023-11-22T04:56:31.403Z,0.80
2023-11-22T04:58:58.867Z,0.88
2023-11-22T05:01:27.058Z,0.75
2023-11-22T05:03:54.612Z,0.93
2023-11-22T05:06:22.222Z,0.65
2023-11-22T05:08:49.853Z,0.90
2023-11-22T05:11:17.454Z,1.13
2023-11-22T05:13:44.897Z,1.10
2023-11-22T05:16:12.381Z,1.63
2023-11-22T05:18:39.772Z,1.20
2023-11-22T05:21:07.452Z,1.25
2023-11-22T05:23:34.880Z,1.13
2023-11-22T05:26:02.266Z,1.17
2023-11-22T05:28:29.750Z,0.98
2023-11-22T05:30:57.314Z,2.03
2023-11-22T05:33:25.426Z,2.15
2023-11-22T05:35:52.858Z,1.77
2023-11-22T05:38:20.362Z,2.33
2023-11-22T05:40:47.757Z,1.73
2023-11-22T05:43:15.076Z,1.30
2023-11-22T05:45:42.266Z,3.15
2023-11-22T05:48:09.613Z,2.40
2023-11-22T05:50:36.970Z,2.15
2023-11-22T05:53:04.506Z,1.98
2023-11-22T05:55:31.785Z,1.52
2023-11-22T05:57:59.232Z,1.88
2023-11-22T06:00:27.738Z,1.42
2023-11-22T06:05:22.746Z,1.20
2023-11-22T06:07:50.117Z,1.75
2023-11-22T06:10:17.393Z,2.30
2023-11-22T06:12:45.415Z,1.80
2023-11-22T06:15:13.442Z,2.17
2023-11-22T06:17:40.944Z,2.00
2023-11-22T06:20:09.060Z,1.75
2023-11-22T06:22:36.388Z,1.70
2023-11-22T06:25:03.831Z,1.10
2023-11-22T06:27:31.128Z,1.20
2023-11-22T06:29:58.992Z,1.42
2023-11-22T06:32:26.489Z,2.20
2023-11-22T06:34:53.832Z,1.35
2023-11-22T06:37:22.092Z,1.30
2023-11-22T06:39:49.288Z,1.75
2023-11-22T06:42:16.487Z,1.58
2023-11-22T06:44:44.267Z,1.90
2023-11-22T06:47:14.739Z,1.42
2023-11-22T06:49:42.210Z,0.98
2023-11-22T06:52:10.256Z,1.20
2023-11-22T06:54:37.906Z,0.80
2023-11-22T06:57:05.338Z,1.40
2023-11-22T06:59:32.680Z,1.10
2023-11-22T07:01:59.923Z,1.70
2023-11-22T07:04:27.474Z,2.08
2023-11-22T07:06:54.854Z,1.25
2023-11-22T07:09:22.147Z,1.20
2023-11-22T07:11:51.109Z,1.38
2023-11-22T07:14:18.422Z,1.10
2023-11-22T07:16:45.681Z,1.55
2023-11-22T07:19:13.960Z,1.33
2023-11-22T07:21:41.176Z,1.80
2023-11-22T07:24:08.814Z,1.63
2023-11-22T07:26:36.055Z,1.48
2023-11-22T07:29:03.449Z,2.15
2023-11-22T07:31:30.688Z,1.45
2023-11-22T07:33:58.013Z,2.35
2023-11-22T07:36:26.074Z,1.63
2023-11-22T07:38:55.216Z,1.70
2023-11-22T07:41:22.782Z,1.70
2023-11-22T07:43:51.026Z,1.40
2023-11-22T07:46:18.973Z,1.50
2023-11-22T07:48:48.539Z,1.25
2023-11-22T07:51:18.141Z,1.25
2023-11-22T07:53:45.860Z,1.52
2023-11-22T07:56:13.840Z,0.95
2023-11-22T07:58:42.260Z,1.52
2023-11-22T08:01:14.824Z,1.30
2023-11-22T08:03:47.842Z,0.80
2023-11-22T08:06:18.022Z,1.00
2023-11-22T08:08:47.566Z,1.00
2023-11-22T08:11:19.456Z,1.02
2023-11-22T08:13:49.046Z,1.20
2023-11-22T08:16:16.430Z,0.85
2023-11-22T08:18:44.814Z,1.23
2023-11-22T08:21:12.975Z,1.33
2023-11-22T08:23:40.547Z,1.50
2023-11-22T08:26:10.016Z,1.13
2023-11-22T08:28:37.670Z,1.30
2023-11-22T08:31:11.368Z,0.88
2023-11-22T08:33:39.472Z,0.90
2023-11-22T08:36:10.539Z,1.40
2023-11-22T08:38:37.956Z,1.08
2023-11-22T08:41:09.838Z,1.45
2023-11-22T08:43:37.206Z,1.10
2023-11-22T08:46:13.778Z,1.40
2023-11-22T08:48:43.862Z,1.20
2023-11-22T08:51:11.975Z,1.35
2023-11-22T08:53:39.466Z,1.35
2023-11-22T08:56:07.311Z,1.13
2023-11-22T08:58:35.349Z,1.40
2023-11-22T09:01:05.185Z,1.60
2023-11-22T09:03:34.146Z,1.20
2023-11-22T09:06:02.012Z,1.10
2023-11-22T09:08:31.620Z,1.55
2023-11-22T09:10:59.215Z,1.70
2023-11-22T09:13:26.675Z,1.70
2023-11-22T09:15:54.105Z,1.67
2023-11-22T09:18:23.254Z,1.90
2023-11-22T09:20:50.613Z,1.50
2023-11-22T09:23:18.468Z,1.73
2023-11-22T09:25:45.801Z,1.67
2023-11-22T09:28:13.118Z,1.17
2023-11-22T09:30:42.494Z,1.58
2023-11-22T09:33:17.808Z,1.40
2023-11-22T09:35:47.798Z,1.88
2023-11-22T09:38:17.448Z,1.58
2023-11-22T09:40:50.374Z,1.98
2023-11-22T09:43:20.566Z,1.63
2023-11-22T09:45:53.280Z,1.63
2023-11-22T09:48:26.462Z,1.27
2023-11-22T09:51:10.039Z,1.35
2023-11-22T09:53:54.484Z,1.40
2023-11-22T09:56:22.042Z,1.38
2023-11-22T09:58:52.993Z,1.30
2023-11-22T10:01:20.480Z,1.85
2023-11-22T10:03:48.987Z,1.10
2023-11-22T10:06:17.279Z,1.40
2023-11-22T10:08:48.133Z,0.70
2023-11-22T10:11:19.410Z,1.00
2023-11-22T10:13:58.524Z,1.23
2023-11-22T10:16:26.078Z,1.75
2023-11-22T10:18:53.408Z,1.50
2023-11-22T10:21:33.755Z,1.40
2023-11-22T10:24:05.468Z,0.90
2023-11-22T10:26:33.489Z,1.00
2023-11-22T10:29:01.174Z,1.80
2023-11-22T10:31:29.651Z,1.60
2023-11-22T10:33:59.169Z,1.30
2023-11-22T10:36:27.070Z,1.65
2023-11-22T10:38:55.736Z,1.40
2023-11-22T10:41:26.032Z,1.42
2023-11-22T10:43:58.647Z,1.50
2023-11-22T10:46:29.536Z,1.70
2023-11-22T10:48:59.677Z,1.48
2023-11-22T10:51:33.347Z,1.42
2023-11-22T10:54:05.413Z,1.55
2023-11-22T10:56:41.042Z,1.50
2023-11-22T10:59:24.134Z,2.20
2023-11-22T11:01:54.213Z,0.95
2023-11-22T11:04:28.889Z,1.55
2023-11-22T11:06:59.772Z,1.95
2023-11-22T11:09:33.924Z,1.55
2023-11-22T11:12:07.618Z,1.00
2023-11-22T11:14:36.723Z,1.40
2023-11-22T11:17:06.219Z,1.50
2023-11-22T11:19:34.422Z,1.50
2023-11-22T11:22:02.312Z,1.45
2023-11-22T11:24:29.686Z,1.50
2023-11-22T11:26:57.013Z,1.17
2023-11-22T11:29:32.368Z,1.25
2023-11-22T11:31:59.832Z,1.25
2023-11-22T11:34:27.103Z,1.52
2023-11-22T11:36:58.113Z,1.80
2023-11-22T11:39:32.850Z,1.30
2023-11-22T11:42:17.342Z,1.63
2023-11-22T11:44:54.153Z,1.33
2023-11-22T11:47:21.776Z,1.58
2023-11-22T11:49:51.750Z,1.40
2023-11-22T11:52:19.236Z,1.02
2023-11-22T11:54:46.566Z,1.27
2023-11-22T11:57:14.041Z,1.40
2023-11-22T11:59:43.353Z,1.20
2023-11-22T12:02:11.004Z,1.30
2023-11-22T12:04:38.230Z,1.40
2023-11-22T12:07:09.553Z,1.63
2023-11-22T12:09:37.237Z,1.35
2023-11-22T12:12:04.853Z,1.55
2023-11-22T12:14:32.272Z,1.20
2023-11-22T12:17:00.563Z,1.13
2023-11-22T12:19:32.369Z,2.00
2023-11-22T12:22:00.399Z,1.50
2023-11-22T12:24:28.533Z,1.40
2023-11-22T12:26:57.540Z,1.40
2023-11-22T12:29:25.383Z,1.58
2023-11-22T12:34:21.503Z,1.92
2023-11-22T12:36:50.168Z,2.05
2023-11-22T12:39:20.426Z,1.42
2023-11-22T12:42:02.176Z,2.03
2023-11-22T12:44:55.650Z,2.08
2023-11-22T12:47:39.098Z,1.83
2023-11-22T12:50:08.621Z,1.90
2023-11-22T12:52:46.608Z,1.70
2023-11-22T12:55:17.814Z,2.13
2023-11-22T12:57:45.683Z,1.88
2023-11-22T13:00:13.684Z,2.25
2023-11-22T13:02:52.251Z,2.20
2023-11-22T13:05:29.116Z,2.70
2023-11-22T13:07:56.422Z,2.95
2023-11-22T13:10:26.879Z,3.08
2023-11-22T13:12:55.536Z,2.75
2023-11-22T13:15:24.702Z,2.72
2023-11-22T13:17:56.633Z,3.28
2023-11-22T13:20:27.283Z,2.95
2023-11-22T13:22:55.404Z,2.90
2023-11-22T13:25:24.925Z,3.40
2023-11-22T13:27:53.565Z,3.88
2023-11-22T13:30:24.379Z,3.10
2023-11-22T13:32:53.039Z,3.45
2023-11-22T13:35:20.351Z,4.30
2023-11-22T13:37:51.712Z,3.97
2023-11-22T13:40:23.416Z,2.90
2023-11-22T13:42:53.695Z,3.35
2023-11-22T13:45:24.302Z,3.03
2023-11-22T13:48:00.409Z,3.40
2023-11-22T13:50:28.694Z,4.63
2023-11-22T13:52:57.513Z,3.65
2023-11-22T13:55:26.520Z,4.53
2023-11-22T13:57:55.965Z,5.60
2023-11-22T14:00:28.149Z,7.20
2023-11-22T14:02:58.458Z,6.53
2023-11-22T14:05:27.954Z,5.72
2023-11-22T14:07:55.623Z,5.22
2023-11-22T14:10:23.774Z,5.82
2023-11-22T14:12:51.853Z,6.70
2023-11-22T14:15:22.464Z,6.85
2023-11-22T14:17:54.089Z,5.43
2023-11-22T14:20:22.509Z,6.97
2023-11-22T14:22:49.911Z,6.18
2023-11-22T14:25:17.568Z,6.53
2023-11-22T14:27:47.076Z,62.92
2023-11-22T14:30:18.597Z,20.33
2023-11-22T14:32:46.568Z,25.63
2023-11-22T14:35:14.075Z,6.90
2023-11-22T14:37:42.202Z,6.72
2023-11-22T14:40:15.012Z,8.75
2023-11-22T14:42:44.367Z,6.88
2023-11-22T14:45:12.840Z,9.10
2023-11-22T14:50:13.095Z,9.40
2023-11-22T14:52:41.436Z,9.63
2023-11-22T14:55:10.677Z,14.52
2023-11-22T14:57:38.530Z,6.70
2023-11-22T15:00:11.110Z,5.15
2023-11-22T15:02:38.782Z,4.70
2023-11-22T15:05:12.189Z,4.35
2023-11-22T15:07:43.216Z,4.18
2023-11-22T15:10:12.268Z,3.97
2023-11-22T15:12:41.775Z,4.90
2023-11-22T15:15:10.208Z,4.88
2023-11-22T15:17:37.557Z,5.75
2023-11-22T15:20:11.675Z,5.38
2023-11-22T15:22:39.933Z,7.60
2023-11-22T15:25:07.739Z,5.50
2023-11-22T15:27:36.046Z,6.32
2023-11-22T15:30:04.870Z,8.40
2023-11-22T15:32:32.398Z,5.13
2023-11-22T15:35:01.765Z,4.45
2023-11-22T15:37:30.620Z,5.43
2023-11-22T15:39:58.688Z,5.50
2023-11-22T15:42:26.186Z,6.95
2023-11-22T15:44:53.629Z,6.18
2023-11-22T15:47:21.568Z,5.13
2023-11-22T15:49:48.866Z,5.88
2023-11-22T15:52:16.757Z,4.60
2023-11-22T15:54:44.221Z,5.13
2023-11-22T15:57:11.507Z,6.30
2023-11-22T15:59:38.790Z,12.50
2023-11-22T16:02:09.822Z,11.52
2023-11-22T16:04:37.953Z,11.55
2023-11-22T16:07:05.690Z,11.98
2023-11-22T16:09:33.375Z,10.20
2023-11-22T16:12:00.657Z,8.35
2023-11-22T16:14:28.239Z,7.32
2023-11-22T16:16:55.527Z,7.25
2023-11-22T16:19:22.849Z,7.20
2023-11-22T16:21:50.097Z,7.22
2023-11-22T16:24:17.526Z,9.90
2023-11-22T16:26:44.975Z,9.00
2023-11-22T16:29:16.310Z,11.10
2023-11-22T16:31:45.615Z,12.65
2023-11-22T16:34:12.984Z,14.98
2023-11-22T16:36:40.316Z,16.52
2023-11-22T16:39:20.327Z,10.10
2023-11-22T16:41:54.439Z,7.85
2023-11-22T16:44:21.811Z,6.25
2023-11-22T16:46:50.353Z,6.75
2023-11-22T16:49:17.844Z,5.78
2023-11-22T16:51:47.391Z,7.70
2023-11-22T16:54:15.335Z,6.93
2023-11-22T16:56:42.895Z,6.10
2023-11-22T16:59:10.809Z,6.60
2023-11-22T17:01:38.372Z,6.38
2023-11-22T17:04:06.039Z,6.40
2023-11-22T17:06:33.578Z,7.47
2023-11-22T17:09:01.320Z,9.57
2023-11-22T17:11:28.626Z,7.55
2023-11-22T17:13:56.009Z,8.38
2023-11-22T17:16:23.498Z,7.68
2023-11-22T17:18:50.791Z,8.00
2023-11-22T17:21:18.705Z,7.55
2023-11-22T17:23:46.636Z,7.18
2023-11-22T17:26:14.210Z,6.13
2023-11-22T17:28:41.863Z,7.05
2023-11-22T17:31:09.245Z,8.43
2023-11-22T17:33:37.029Z,8.52
2023-11-22T17:36:05.940Z,7.97
2023-11-22T17:38:33.587Z,8.48
2023-11-22T17:41:03.968Z,9.82
2023-11-22T17:43:31.366Z,9.15
2023-11-22T17:45:59.390Z,9.38
2023-11-22T17:48:27.152Z,9.55
2023-11-22T17:50:56.433Z,8.68
2023-11-22T17:53:27.504Z,9.40
2023-11-22T17:55:55.106Z,7.97
2023-11-22T17:58:22.457Z,6.72
2023-11-22T18:00:49.967Z,7.75
2023-11-22T18:03:17.558Z,6.97
2023-11-22T18:05:46.678Z,6.35
2023-11-22T18:08:21.290Z,6.28
2023-11-22T18:10:50.944Z,5.03
2023-11-22T18:13:19.305Z,5.47
2023-11-22T18:15:48.564Z,5.28
2023-11-22T18:18:17.343Z,5.40
2023-11-22T18:20:46.400Z,5.78
2023-11-22T18:23:14.113Z,5.53
2023-11-22T18:25:41.572Z,5.28
2023-11-22T18:28:12.393Z,7.85
2023-11-22T18:30:40.036Z,12.43
2023-11-22T18:33:13.264Z,12.27
2023-11-22T18:35:41.318Z,9.20
2023-11-22T18:38:08.847Z,10.48
2023-11-22T18:40:36.554Z,9.93
2023-11-22T18:43:07.158Z,9.32
2023-11-22T18:45:34.868Z,10.82
2023-11-22T18:48:02.599Z,9.65
2023-11-22T18:50:30.374Z,10.20
2023-11-22T18:52:57.748Z,8.07
2023-11-22T18:55:25.197Z,7.50
2023-11-22T18:57:52.629Z,8.55
2023-11-22T19:00:21.426Z,7.53
2023-11-22T19:02:48.714Z,7.57
2023-11-22T19:05:16.531Z,7.07
2023-11-22T19:07:43.873Z,6.85
2023-11-22T19:10:11.298Z,8.27
2023-11-22T19:12:40.723Z,8.10
2023-11-22T19:15:11.930Z,6.43
2023-11-22T19:18:35.597Z,5.65
2023-11-22T19:21:22.597Z,6.60
2023-11-22T19:23:53.462Z,6.68
2023-11-22T19:26:25.275Z,6.88
2023-11-22T19:28:53.240Z,4.97
2023-11-22T19:31:21.556Z,4.85
2023-11-22T19:33:49.136Z,4.88
2023-11-22T19:36:27.113Z,5.15
2023-11-22T19:38:57.686Z,4.25
2023-11-22T19:41:25.846Z,4.80
2023-11-22T19:43:53.085Z,4.22
2023-11-22T19:46:21.141Z,3.78
2023-11-22T19:48:48.474Z,4.63
2023-11-22T19:51:15.857Z,4.25
2023-11-22T19:53:43.164Z,4.07
2023-11-22T19:56:10.622Z,4.85
2023-11-22T19:58:37.932Z,4.20
2023-11-22T20:01:07.235Z,3.90
2023-11-22T20:03:34.706Z,3.42
2023-11-22T20:06:02.249Z,4.00
2023-11-22T20:08:29.627Z,3.67
2023-11-22T20:10:56.972Z,3.42
2023-11-22T20:13:24.147Z,3.40
2023-11-22T20:15:53.105Z,4.25
2023-11-22T20:18:20.437Z,3.33
2023-11-22T20:20:48.157Z,2.80
2023-11-22T20:23:18.353Z,2.88
2023-11-22T20:25:45.768Z,3.83
2023-11-22T20:28:13.235Z,2.88
2023-11-22T20:30:40.545Z,2.80
2023-11-22T20:33:08.069Z,3.47
2023-11-22T20:35:35.551Z,4.53
2023-11-22T20:38:03.072Z,3.58
2023-11-22T20:40:30.292Z,2.95
2023-11-22T20:42:58.425Z,3.78
2023-11-22T20:45:25.801Z,3.35
2023-11-22T20:47:53.053Z,3.42
2023-11-22T20:50:20.330Z,2.78
2023-11-22T20:52:47.615Z,3.80
2023-11-22T20:55:16.797Z,2.85
2023-11-22T20:57:44.109Z,3.35
2023-11-22T21:00:12.432Z,3.63
2023-11-22T21:02:40.900Z,3.10
2023-11-22T21:05:09.012Z,2.40
2023-11-22T21:07:36.562Z,3.17
2023-11-22T21:10:04.539Z,2.83
2023-11-22T21:12:31.873Z,2.35
2023-11-22T21:15:00.291Z,3.15
2023-11-22T21:17:36.853Z,3.17
2023-11-22T21:20:11.349Z,2.78
2023-11-22T21:22:39.113Z,2.38
2023-11-22T21:25:10.997Z,2.95
2023-11-22T21:27:41.655Z,2.78
2023-11-22T21:30:11.356Z,2.72
2023-11-22T21:32:39.660Z,2.38
2023-11-22T21:35:09.635Z,2.58
2023-11-22T21:37:37.198Z,2.72
2023-11-22T21:40:11.790Z,2.83
2023-11-22T21:42:42.147Z,2.70
2023-11-22T21:45:12.674Z,3.10
2023-11-22T21:47:40.580Z,3.08
2023-11-22T21:50:09.054Z,3.40
2023-11-22T21:52:36.381Z,2.60
2023-11-22T21:55:04.138Z,3.25
2023-11-22T21:57:31.862Z,3.50
2023-11-22T22:00:00.558Z,2.67
2023-11-22T22:02:28.492Z,2.67
2023-11-22T22:04:55.703Z,2.53
2023-11-22T22:07:23.591Z,2.70
2023-11-22T22:09:50.871Z,3.15
2023-11-22T22:12:18.160Z,2.80
2023-11-22T22:14:45.421Z,2.72
2023-11-22T22:17:12.885Z,2.85
2023-11-22T22:19:40.278Z,2.60
2023-11-22T22:22:07.562Z,2.33
2023-11-22T22:24:34.774Z,2.70
2023-11-22T22:27:02.045Z,2.72
2023-11-22T22:29:29.417Z,3.03
2023-11-22T22:31:56.810Z,2.33
2023-11-22T22:34:23.973Z,2.40
2023-11-22T22:36:52.695Z,2.75
2023-11-22T22:39:19.880Z,2.40
2023-11-22T22:41:52.849Z,2.63
2023-11-22T22:44:20.159Z,2.15
2023-11-22T22:46:47.447Z,2.35
2023-11-22T22:49:15.228Z,2.33
2023-11-22T22:51:43.083Z,2.40
2023-11-22T22:54:10.829Z,2.65
2023-11-22T22:56:38.089Z,2.05
2023-11-22T22:59:07.743Z,2.90
2023-11-22T23:01:35.649Z,2.53
2023-11-22T23:04:05.029Z,2.47
2023-11-22T23:06:32.465Z,2.47
2023-11-22T23:08:59.691Z,2.38
2023-11-22T23:11:27.094Z,2.10
2023-11-22T23:13:54.293Z,2.90
2023-11-22T23:16:21.594Z,2.75
2023-11-22T23:18:57.711Z,3.17
2023-11-22T23:21:28.049Z,2.55
2023-11-22T23:23:55.620Z,3.00
2023-11-22T23:26:27.000Z,2.75
2023-11-22T23:28:54.684Z,2.88
2023-11-22T23:31:22.087Z,2.42
2023-11-22T23:33:51.912Z,2.65
2023-11-22T23:36:19.941Z,2.30
2023-11-22T23:38:47.997Z,2.17
2023-11-22T23:41:15.699Z,2.83
2023-11-22T23:43:43.093Z,2.47
2023-11-22T23:46:11.882Z,2.40
2023-11-22T23:51:07.656Z,2.80
2023-11-22T23:53:34.892Z,2.30
2023-11-22T23:56:06.871Z,2.42
2023-11-22T23:58:34.091Z,2.67
